Time;durP1;ratioP1;P1;durP2;ratioP2;P2;SDS_P1;SDS_P2;PMS_P1;PMS_P2;Temp;Humidity;BMP_temperature;BMP_pressure;BME280_temperature;BME280_humidity;BME280_pressure;Samples;Min_cycle;Max_cycle;Signal;HPM_P1;HPM_P2
2022/07/16 00:02:08;;;;;;;0.10;0.10;;;15.30;99.90;;;;;;5151245;28;20500;-86
2022/07/16 00:04:35;;;;;;;0.25;0.17;;;15.30;99.90;;;;;;5151247;28;20036;-85
2022/07/16 00:07:02;;;;;;;0.00;0.00;;;15.30;99.90;;;;;;5134053;28;20126;-85
2022/07/16 00:09:29;;;;;;;0.10;0.10;;;15.30;99.90;;;;;;5151017;28;20096;-85
2022/07/16 00:11:55;;;;;;;0.20;0.20;;;15.30;99.90;;;;;;5134060;28;20046;-86
2022/07/16 00:14:22;;;;;;;0.10;0.10;;;15.20;99.90;;;;;;5134127;28;20048;-86
2022/07/16 00:16:48;;;;;;;0.00;0.00;;;15.30;99.90;;;;;;5150872;28;20145;-86
2022/07/16 00:19:15;;;;;;;0.10;0.10;;;15.20;99.90;;;;;;5134211;28;20043;-86
2022/07/16 00:21:43;;;;;;;0.10;0.10;;;15.30;99.90;;;;;;5151399;28;20070;-86
2022/07/16 00:24:10;;;;;;;0.10;0.10;;;15.30;99.90;;;;;;5133278;28;20428;-86
2022/07/16 00:26:37;;;;;;;0.30;0.20;;;15.20;99.90;;;;;;5133808;28;20820;-86
2022/07/16 00:29:04;;;;;;;0.10;0.10;;;15.20;99.90;;;;;;5133422;28;20043;-86
2022/07/16 00:31:31;;;;;;;0.35;0.13;;;15.30;99.90;;;;;;5150999;28;20050;-87
2022/07/16 00:33:58;;;;;;;0.45;0.10;;;15.30;99.90;;;;;;5150287;28;20035;-86
2022/07/16 00:36:24;;;;;;;0.20;0.17;;;15.30;99.90;;;;;;5133497;28;20050;-86
2022/07/16 00:38:51;;;;;;;0.20;0.20;;;15.30;99.90;;;;;;5150707;28;20400;-86
2022/07/16 00:41:18;;;;;;;0.10;0.10;;;15.30;99.90;;;;;;5150700;28;20067;-86
2022/07/16 00:43:59;;;;;;;0.10;0.10;;;15.40;99.90;;;;;;5167808;27;20036;-86
2022/07/16 00:46:26;;;;;;;0.15;0.13;;;15.40;99.90;;;;;;5133279;28;20043;-86
2022/07/16 00:48:53;;;;;;;0.15;0.10;;;15.40;99.90;;;;;;5133119;28;20488;-86
2022/07/16 00:51:22;;;;;;;0.13;0.13;;;15.40;99.90;;;;;;5149836;28;20047;-86
2022/07/16 00:53:50;;;;;;;0.20;0.20;;;15.50;99.90;;;;;;5133246;28;20047;-87
2022/07/16 00:56:18;;;;;;;0.43;0.20;;;15.50;99.90;;;;;;5133132;28;20031;-87
2022/07/16 00:58:46;;;;;;;0.10;0.10;;;15.50;99.90;;;;;;5150597;28;20067;-86
2022/07/16 01:01:14;;;;;;;0.15;0.15;;;15.50;99.90;;;;;;5150055;28;20071;-86
2022/07/16 01:03:42;;;;;;;0.47;0.17;;;15.50;99.90;;;;;;5167241;27;20911;-87
2022/07/16 01:06:10;;;;;;;0.75;0.30;;;15.50;99.90;;;;;;5149456;28;20131;-86
2022/07/16 01:08:39;;;;;;;0.10;0.10;;;15.40;99.90;;;;;;5149478;28;20039;-86
2022/07/16 01:11:08;;;;;;;0.30;0.20;;;15.40;99.90;;;;;;5132832;28;20118;-86
2022/07/16 01:13:37;;;;;;;0.08;0.08;;;15.30;99.90;;;;;;5133419;28;20081;-87
2022/07/16 01:16:05;;;;;;;0.10;0.10;;;15.20;99.90;;;;;;5132999;28;20036;-86
2022/07/16 01:18:32;;;;;;;0.10;0.10;;;15.20;99.90;;;;;;5150253;28;20048;-88
2022/07/16 01:20:59;;;;;;;0.15;0.15;;;15.10;99.90;;;;;;5149939;28;20035;-86
2022/07/16 01:23:26;;;;;;;0.10;0.10;;;15.10;99.90;;;;;;5150152;28;20039;-86
2022/07/16 01:25:52;;;;;;;0.13;0.10;;;15.00;99.90;;;;;;5149768;28;20487;-87
2022/07/16 01:28:20;;;;;;;0.10;0.10;;;14.90;99.90;;;;;;5149590;28;20039;-86
2022/07/16 01:30:48;;;;;;;0.20;0.20;;;14.90;99.90;;;;;;5133286;28;20040;-86
2022/07/16 01:33:22;;;;;;;0.05;0.05;;;14.90;99.90;;;;;;5149382;28;20047;-87
2022/07/16 01:35:50;;;;;;;0.05;0.05;;;14.90;99.90;;;;;;5166991;27;20058;-86
2022/07/16 01:38:17;;;;;;;0.08;0.08;;;14.90;99.90;;;;;;5149522;28;20123;-86
2022/07/16 01:40:44;;;;;;;0.10;0.10;;;14.90;99.90;;;;;;5148238;28;20035;-86
2022/07/16 01:43:23;;;;;;;0.10;0.10;;;14.90;99.90;;;;;;5144603;28;20819;-87
2022/07/16 01:45:50;;;;;;;0.00;0.00;;;14.90;99.90;;;;;;5132840;28;20035;-86
2022/07/16 01:48:17;;;;;;;0.08;0.08;;;14.90;99.90;;;;;;5148626;28;20557;-86
2022/07/16 01:50:44;;;;;;;0.00;0.00;;;14.90;99.90;;;;;;5149604;28;20049;-86
2022/07/16 01:53:11;;;;;;;0.00;0.00;;;14.90;99.90;;;;;;5153002;27;20144;-86
2022/07/16 01:55:39;;;;;;;0.22;0.20;;;14.90;99.90;;;;;;5111949;28;20131;-86
2022/07/16 01:58:08;;;;;;;0.00;0.00;;;14.90;99.90;;;;;;5133964;28;20031;-86
2022/07/16 02:00:37;;;;;;;0.52;0.20;;;14.90;99.90;;;;;;5132346;28;20046;-86
2022/07/16 02:03:05;;;;;;;0.10;0.10;;;14.90;99.90;;;;;;5131827;28;20077;-86
2022/07/16 02:05:32;;;;;;;0.00;0.00;;;14.90;99.90;;;;;;5149012;28;20050;-86
2022/07/16 02:07:59;;;;;;;0.00;0.00;;;14.90;99.90;;;;;;5131981;28;20043;-86
2022/07/16 02:10:25;;;;;;;0.10;0.10;;;14.90;99.90;;;;;;5098198;28;20040;-86
2022/07/16 02:12:52;;;;;;;0.00;0.00;;;14.80;99.90;;;;;;5114909;28;20054;-86
2022/07/16 02:15:19;;;;;;;0.00;0.00;;;14.80;99.90;;;;;;5114862;28;20031;-86
2022/07/16 02:17:46;;;;;;;0.00;0.00;;;14.80;99.90;;;;;;5132445;28;20036;-86
2022/07/16 02:20:13;;;;;;;0.00;0.00;;;14.80;99.90;;;;;;5097383;28;20062;-86
2022/07/16 02:22:40;;;;;;;0.00;0.00;;;14.80;99.90;;;;;;5098457;28;20495;-87
2022/07/16 02:25:09;;;;;;;0.10;0.10;;;14.80;99.90;;;;;;5097833;28;20039;-86
2022/07/16 02:27:35;;;;;;;0.30;0.10;;;14.80;99.90;;;;;;5098646;28;20047;-87
2022/07/16 02:30:04;;;;;;;0.10;0.10;;;14.70;99.90;;;;;;5131421;28;20412;-86
2022/07/16 02:32:30;;;;;;;0.15;0.10;;;14.70;99.90;;;;;;5148616;28;20105;-86
2022/07/16 02:34:57;;;;;;;0.10;0.10;;;14.70;99.90;;;;;;5148325;28;20087;-86
2022/07/16 02:37:24;;;;;;;0.25;0.17;;;14.70;99.90;;;;;;5131980;28;20042;-87
2022/07/16 02:39:50;;;;;;;0.00;0.00;;;14.70;99.90;;;;;;5149119;28;20120;-87
2022/07/16 02:42:17;;;;;;;0.03;0.03;;;14.60;99.90;;;;;;5148554;28;20031;-86
2022/07/16 02:44:44;;;;;;;0.03;0.03;;;14.70;99.90;;;;;;5148632;28;20036;-87
2022/07/16 02:47:10;;;;;;;0.10;0.10;;;14.60;99.90;;;;;;5148572;28;20043;-85
2022/07/16 02:49:37;;;;;;;0.08;0.08;;;14.60;99.90;;;;;;5131461;28;20073;-86
2022/07/16 02:52:04;;;;;;;0.00;0.00;;;14.50;99.90;;;;;;5165557;27;20039;-87
2022/07/16 02:54:31;;;;;;;0.00;0.00;;;14.50;99.90;;;;;;5131225;28;20035;-87
2022/07/16 02:56:57;;;;;;;0.00;0.00;;;14.50;99.90;;;;;;5131375;28;20036;-87
2022/07/16 02:59:24;;;;;;;0.10;0.10;;;14.50;99.90;;;;;;5147728;28;20047;-86
2022/07/16 03:01:51;;;;;;;0.00;0.00;;;14.40;99.90;;;;;;5131014;28;20122;-86
2022/07/16 03:04:17;;;;;;;0.10;0.10;;;14.40;99.90;;;;;;5130806;28;20039;-86
2022/07/16 03:06:44;;;;;;;0.00;0.00;;;14.30;99.90;;;;;;5130998;28;20395;-86
2022/07/16 03:09:11;;;;;;;0.10;0.10;;;14.30;99.90;;;;;;5130434;28;20040;-86
2022/07/16 03:11:37;;;;;;;0.05;0.05;;;14.30;99.90;;;;;;5130188;28;20057;-86
2022/07/16 03:14:04;;;;;;;0.00;0.00;;;14.30;99.90;;;;;;5130400;28;20042;-87
2022/07/16 03:16:31;;;;;;;0.00;0.00;;;14.30;99.90;;;;;;5130225;28;20047;-86
2022/07/16 03:18:57;;;;;;;0.08;0.08;;;14.20;99.90;;;;;;5130493;28;20097;-87
2022/07/16 03:21:24;;;;;;;0.00;0.00;;;14.20;99.90;;;;;;5130651;28;20071;-86
2022/07/16 03:23:51;;;;;;;0.10;0.10;;;14.20;99.90;;;;;;5147750;28;20039;-85
2022/07/16 03:26:17;;;;;;;0.03;0.03;;;14.10;99.90;;;;;;5147176;28;20035;-86
2022/07/16 03:28:44;;;;;;;0.00;0.00;;;14.10;99.90;;;;;;5130049;28;20047;-86
2022/07/16 03:31:11;;;;;;;0.10;0.10;;;14.00;99.90;;;;;;5130452;28;20061;-87
2022/07/16 03:33:37;;;;;;;0.00;0.00;;;14.00;99.90;;;;;;5130185;28;20047;-86
2022/07/16 03:36:04;;;;;;;0.00;0.00;;;14.00;99.90;;;;;;5147192;28;20051;-86
2022/07/16 03:41:17;;;;;;;0.10;0.10;;;13.90;99.90;;;;;;5161504;28;20047;-86
2022/07/16 03:43:43;;;;;;;0.00;0.00;;;13.90;99.90;;;;;;5130272;28;20031;-86
2022/07/16 03:46:13;;;;;;;0.10;0.10;;;13.90;99.90;;;;;;5147401;28;20552;-86
2022/07/16 03:48:40;;;;;;;0.10;0.10;;;13.90;99.90;;;;;;5130290;28;20039;-86
2022/07/16 03:51:07;;;;;;;0.00;0.00;;;13.80;99.90;;;;;;5147240;28;20051;-86
2022/07/16 03:53:35;;;;;;;0.10;0.10;;;13.80;99.90;;;;;;5146719;28;20040;-86
2022/07/16 03:56:02;;;;;;;0.10;0.10;;;13.80;99.90;;;;;;5146910;28;20050;-86
2022/07/16 03:58:29;;;;;;;0.05;0.05;;;13.80;99.90;;;;;;5146977;28;20560;-86
2022/07/16 04:00:56;;;;;;;0.00;0.00;;;13.80;99.90;;;;;;5146615;28;20508;-86
2022/07/16 04:03:23;;;;;;;0.00;0.00;;;13.80;99.90;;;;;;5164292;28;20050;-86
2022/07/16 04:05:50;;;;;;;0.00;0.00;;;13.80;99.90;;;;;;5147392;28;20131;-85
2022/07/16 04:08:17;;;;;;;0.00;0.00;;;13.80;99.90;;;;;;5147402;28;20130;-86
2022/07/16 04:10:44;;;;;;;0.10;0.10;;;13.70;99.90;;;;;;5146734;28;20051;-86
2022/07/16 04:13:11;;;;;;;0.00;0.00;;;13.70;99.90;;;;;;5129894;28;20043;-86
2022/07/16 04:15:38;;;;;;;0.22;0.20;;;13.70;99.90;;;;;;5146765;28;20035;-86
2022/07/16 04:18:04;;;;;;;0.10;0.10;;;13.70;99.90;;;;;;5146853;28;20045;-86
2022/07/16 04:20:31;;;;;;;0.00;0.00;;;13.70;99.90;;;;;;5164191;28;20587;-86
2022/07/16 04:22:58;;;;;;;0.10;0.10;;;13.80;99.90;;;;;;5147078;28;20105;-86
2022/07/16 04:25:24;;;;;;;0.10;0.10;;;13.80;99.90;;;;;;5141103;28;20035;-86
2022/07/16 04:27:51;;;;;;;0.10;0.10;;;13.80;99.90;;;;;;5113986;28;20485;-86
2022/07/16 04:30:18;;;;;;;0.00;0.00;;;13.80;99.90;;;;;;5127051;28;20405;-86
2022/07/16 04:32:45;;;;;;;0.00;0.00;;;13.90;99.90;;;;;;5144280;28;20043;-86
2022/07/16 04:35:16;;;;;;;0.10;0.10;;;13.90;99.90;;;;;;5122383;28;20063;-86
2022/07/16 04:37:43;;;;;;;0.05;0.05;;;13.90;99.90;;;;;;5093248;28;20044;-86
2022/07/16 04:40:11;;;;;;;0.20;0.10;;;14.00;99.90;;;;;;5092920;28;20040;-85
2022/07/16 04:42:39;;;;;;;0.00;0.00;;;14.00;99.90;;;;;;5110547;28;20035;-86
2022/07/16 04:45:07;;;;;;;0.10;0.10;;;13.90;99.90;;;;;;5146893;28;20122;-86
2022/07/16 04:47:34;;;;;;;0.00;0.00;;;14.00;99.90;;;;;;5129505;28;20126;-87
2022/07/16 04:50:01;;;;;;;0.17;0.17;;;14.00;99.90;;;;;;5096075;28;20131;-86
2022/07/16 04:52:30;;;;;;;0.00;0.00;;;14.00;99.90;;;;;;5096366;28;20047;-86
2022/07/16 04:54:58;;;;;;;0.25;0.25;;;14.00;99.90;;;;;;5119938;28;20103;-86
2022/07/16 04:57:25;;;;;;;0.00;0.00;;;14.00;99.90;;;;;;5116957;28;20039;-85
2022/07/16 04:59:52;;;;;;;0.10;0.10;;;14.10;99.90;;;;;;5099772;28;20395;-86
2022/07/16 05:05:05;;;;;;;0.15;0.10;;;14.10;99.90;;;;;;5135850;28;20188;-86
2022/07/16 05:07:32;;;;;;;0.10;0.10;;;14.10;99.90;;;;;;5099337;28;20047;-86
2022/07/16 05:09:59;;;;;;;0.00;0.00;;;14.10;99.90;;;;;;5132979;28;20039;-86
2022/07/16 05:12:26;;;;;;;0.00;0.00;;;14.00;99.90;;;;;;5132985;28;20042;-87
2022/07/16 05:14:52;;;;;;;0.00;0.00;;;14.10;99.90;;;;;;5149764;28;20047;-86
2022/07/16 05:17:19;;;;;;;0.05;0.05;;;14.00;99.90;;;;;;5132817;28;20031;-86
2022/07/16 05:19:45;;;;;;;0.30;0.10;;;14.00;99.90;;;;;;5132385;28;20035;-86
2022/07/16 05:22:12;;;;;;;0.10;0.10;;;14.00;99.90;;;;;;5167502;27;20097;-86
2022/07/16 05:24:39;;;;;;;0.10;0.10;;;14.10;99.90;;;;;;5132407;28;20042;-86
2022/07/16 05:27:05;;;;;;;0.10;0.10;;;14.00;99.90;;;;;;5166769;27;20035;-87
2022/07/16 05:29:32;;;;;;;0.00;0.00;;;14.10;99.90;;;;;;5132863;28;20035;-86
2022/07/16 05:31:59;;;;;;;0.00;0.00;;;14.10;99.90;;;;;;5166815;27;20036;-86
2022/07/16 05:34:25;;;;;;;0.75;0.20;;;14.10;99.90;;;;;;5166297;27;20500;-86
2022/07/16 05:36:52;;;;;;;0.00;0.00;;;14.10;99.90;;;;;;5131883;28;20475;-86
2022/07/16 05:39:19;;;;;;;0.10;0.10;;;14.20;99.90;;;;;;5166670;27;20119;-86
2022/07/16 05:41:45;;;;;;;0.17;0.10;;;14.20;99.90;;;;;;5149264;28;20069;-86
2022/07/16 05:44:12;;;;;;;0.15;0.03;;;14.30;99.90;;;;;;5149196;28;20046;-86
2022/07/16 05:46:39;;;;;;;0.08;0.08;;;14.30;99.90;;;;;;5149109;28;20127;-86
2022/07/16 05:49:05;;;;;;;0.00;0.00;;;14.30;99.90;;;;;;5132484;28;20471;-86
2022/07/16 05:51:32;;;;;;;0.30;0.20;;;14.30;99.90;;;;;;5148941;28;20511;-86
2022/07/16 05:53:59;;;;;;;0.13;0.10;;;14.40;99.90;;;;;;5148918;28;20039;-86
2022/07/16 05:56:25;;;;;;;0.13;0.10;;;14.40;99.90;;;;;;5148872;28;20036;-86
2022/07/16 05:58:52;;;;;;;0.00;0.00;;;14.40;99.90;;;;;;5149138;28;20043;-85
2022/07/16 06:01:19;;;;;;;0.10;0.10;;;14.50;99.90;;;;;;5149434;28;20461;-87
2022/07/16 06:03:45;;;;;;;1.15;0.52;;;14.50;99.90;;;;;;5131379;28;20503;-86
2022/07/16 06:06:12;;;;;;;0.10;0.10;;;14.60;99.90;;;;;;5120248;28;20046;-86
2022/07/16 06:08:39;;;;;;;0.10;0.10;;;14.60;99.90;;;;;;5128178;28;20126;-85
2022/07/16 06:11:05;;;;;;;0.10;0.10;;;14.60;99.90;;;;;;5094913;28;20447;-85
2022/07/16 06:13:32;;;;;;;0.00;0.00;;;14.70;99.90;;;;;;5128619;28;20511;-86
2022/07/16 06:16:02;;;;;;;0.00;0.00;;;14.70;99.90;;;;;;5128100;28;20036;-86
2022/07/16 06:18:29;;;;;;;0.00;0.00;;;14.80;99.90;;;;;;5111504;28;20040;-86
2022/07/16 06:20:56;;;;;;;0.00;0.00;;;14.80;99.90;;;;;;5128015;28;20638;-87
2022/07/16 06:23:23;;;;;;;0.10;0.10;;;14.80;99.90;;;;;;5134031;28;20043;-86
2022/07/16 06:25:49;;;;;;;0.10;0.10;;;14.80;99.90;;;;;;5131841;28;20035;-86
2022/07/16 06:28:16;;;;;;;0.10;0.10;;;14.90;99.90;;;;;;5149126;28;20043;-86
2022/07/16 06:30:43;;;;;;;0.15;0.15;;;15.00;99.90;;;;;;5151483;27;20164;-86
2022/07/16 06:33:10;;;;;;;0.10;0.10;;;15.10;99.90;;;;;;5108445;28;20043;-86
2022/07/16 06:35:37;;;;;;;0.08;0.08;;;15.30;99.90;;;;;;5135488;28;20088;-86
2022/07/16 06:38:04;;;;;;;0.10;0.10;;;15.30;99.90;;;;;;5128418;28;20036;-86
2022/07/16 06:40:32;;;;;;;0.00;0.00;;;15.40;99.90;;;;;;5100375;28;20050;-87
2022/07/16 06:42:58;;;;;;;0.00;0.00;;;15.40;99.90;;;;;;5144632;28;20400;-88
2022/07/16 06:45:25;;;;;;;0.00;0.00;;;15.40;99.90;;;;;;5128137;28;20040;-87
2022/07/16 06:47:52;;;;;;;0.00;0.00;;;15.30;99.90;;;;;;5144959;28;20104;-86
2022/07/16 06:50:18;;;;;;;0.00;0.00;;;15.40;99.90;;;;;;5131268;28;20549;-86
2022/07/16 06:52:45;;;;;;;0.00;0.00;;;15.40;99.90;;;;;;5147704;28;20093;-86
2022/07/16 06:55:12;;;;;;;0.13;0.10;;;15.50;99.90;;;;;;5147698;28;20043;-85
2022/07/16 06:57:38;;;;;;;0.00;0.00;;;15.60;99.90;;;;;;5131061;28;20077;-85
2022/07/16 07:00:06;;;;;;;0.00;0.00;;;15.70;99.90;;;;;;5147116;28;20438;-88
2022/07/16 07:02:33;;;;;;;0.00;0.00;;;15.70;99.90;;;;;;5094599;28;20135;-88
2022/07/16 07:05:00;;;;;;;0.20;0.10;;;15.80;99.90;;;;;;5134049;28;20039;-88
2022/07/16 07:07:27;;;;;;;0.00;0.00;;;15.90;99.90;;;;;;5145983;28;20039;-89
2022/07/16 07:09:53;;;;;;;0.00;0.00;;;16.00;99.90;;;;;;5147682;28;20487;-87
2022/07/16 07:12:20;;;;;;;0.10;0.10;;;16.10;99.90;;;;;;5106052;28;20093;-88
2022/07/16 07:14:47;;;;;;;0.65;0.47;;;16.10;99.90;;;;;;5125769;28;20047;-87
2022/07/16 07:17:13;;;;;;;0.10;0.10;;;16.30;99.90;;;;;;5127594;28;20101;-87
2022/07/16 07:19:40;;;;;;;0.40;0.13;;;16.30;99.90;;;;;;5141824;28;20043;-88
2022/07/16 07:22:07;;;;;;;0.25;0.17;;;16.40;99.90;;;;;;5096914;28;20069;-86
2022/07/16 07:24:33;;;;;;;0.00;0.00;;;16.40;99.90;;;;;;5147134;28;20037;-86
2022/07/16 07:27:00;;;;;;;0.00;0.00;;;16.60;99.90;;;;;;5147363;28;20047;-86
2022/07/16 07:29:27;;;;;;;0.40;0.15;;;16.80;99.90;;;;;;5139502;28;20138;-86
2022/07/16 07:31:53;;;;;;;0.10;0.10;;;17.00;99.90;;;;;;5144220;28;20036;-86
2022/07/16 07:34:20;;;;;;;0.00;0.00;;;17.00;99.90;;;;;;5122047;28;20403;-85
2022/07/16 07:36:47;;;;;;;0.03;0.03;;;17.10;99.90;;;;;;5096798;28;20112;-86
2022/07/16 07:39:14;;;;;;;0.00;0.00;;;17.00;99.90;;;;;;5113622;28;20061;-83
2022/07/16 07:41:41;;;;;;;0.10;0.00;;;17.10;99.90;;;;;;5109768;28;20043;-83
2022/07/16 07:44:08;;;;;;;0.03;0.03;;;17.10;99.90;;;;;;5093130;28;20046;-84
2022/07/16 07:46:34;;;;;;;0.00;0.00;;;17.00;99.90;;;;;;5110039;28;20119;-86
2022/07/16 07:49:02;;;;;;;0.03;0.00;;;17.00;99.90;;;;;;5147180;28;20070;-86
2022/07/16 07:51:28;;;;;;;0.00;0.00;;;17.10;99.90;;;;;;5145948;28;20043;-85
2022/07/16 07:53:55;;;;;;;0.50;0.20;;;17.10;99.90;;;;;;5128764;28;20043;-84
2022/07/16 07:56:22;;;;;;;0.05;0.00;;;17.00;99.90;;;;;;5113127;28;20044;-85
2022/07/16 07:58:48;;;;;;;0.00;0.00;;;17.00;99.90;;;;;;5113973;28;20036;-87
2022/07/16 08:01:15;;;;;;;0.00;0.00;;;17.00;99.90;;;;;;5113007;28;20484;-84
2022/07/16 08:03:42;;;;;;;0.32;0.10;;;17.00;99.90;;;;;;5113503;28;20047;-85
2022/07/16 08:06:09;;;;;;;0.03;0.03;;;16.90;99.90;;;;;;5130175;28;20035;-85
2022/07/16 08:08:36;;;;;;;0.03;0.03;;;17.00;99.90;;;;;;5147325;28;20036;-85
2022/07/16 08:11:02;;;;;;;0.00;0.00;;;17.10;99.90;;;;;;5113144;28;20044;-86
2022/07/16 08:13:35;;;;;;;0.00;0.00;;;17.30;99.90;;;;;;5125316;28;20518;-87
2022/07/16 08:16:02;;;;;;;0.30;0.08;;;17.50;99.90;;;;;;5146503;28;20068;-89
2022/07/16 08:18:29;;;;;;;0.00;0.00;;;17.60;99.90;;;;;;5116228;28;20072;-89
2022/07/16 08:20:56;;;;;;;0.00;0.00;;;17.60;99.90;;;;;;5097492;28;20040;-89
2022/07/16 08:26:08;;;;;;;0.00;0.00;;;17.40;99.90;;;;;;5144517;28;20459;-85
2022/07/16 08:28:40;;;;;;;0.00;0.00;;;17.30;99.90;;;;;;5147589;28;20278;-89
2022/07/16 08:31:06;;;;;;;0.00;0.00;;;17.20;99.90;;;;;;5129516;28;20047;-85
2022/07/16 08:33:33;;;;;;;0.15;0.13;;;17.20;99.90;;;;;;5124042;28;20043;-90
2022/07/16 08:36:01;;;;;;;0.68;0.10;;;17.20;99.90;;;;;;5132855;28;20105;-85
2022/07/16 08:38:28;;;;;;;0.20;0.17;;;17.10;99.90;;;;;;5149514;28;20047;-85
2022/07/16 08:40:58;;;;;;;0.28;0.13;;;17.10;99.90;;;;;;5116762;28;20449;-89
2022/07/16 08:43:25;;;;;;;0.05;0.03;;;17.10;99.90;;;;;;5117612;28;20093;-87
2022/07/16 08:45:52;;;;;;;0.00;0.00;;;17.10;99.90;;;;;;5117408;28;20404;-87
2022/07/16 08:48:20;;;;;;;0.52;0.25;;;17.10;99.90;;;;;;5100296;28;20039;-87
2022/07/16 08:50:49;;;;;;;0.00;0.00;;;17.10;99.90;;;;;;5130234;28;20035;-88
2022/07/16 08:53:19;;;;;;;0.20;0.10;;;17.10;99.90;;;;;;5148821;28;20039;-89
2022/07/16 08:55:47;;;;;;;0.00;0.00;;;17.30;99.90;;;;;;5150646;28;20067;-87
2022/07/16 08:58:14;;;;;;;0.00;0.00;;;17.50;99.90;;;;;;5133933;28;20039;-89
2022/07/16 09:00:41;;;;;;;0.10;0.05;;;17.80;99.90;;;;;;5117311;28;20039;-89
2022/07/16 09:03:07;;;;;;;0.10;0.10;;;18.10;99.90;;;;;;5116925;28;20039;-87
2022/07/16 09:05:34;;;;;;;0.00;0.00;;;18.00;99.90;;;;;;5116724;28;20124;-87
2022/07/16 09:08:01;;;;;;;0.15;0.10;;;18.10;99.90;;;;;;5150490;28;20046;-87
2022/07/16 09:10:38;;;;;;;0.10;0.00;;;18.10;99.90;;;;;;5132830;28;20039;-86
2022/07/16 09:13:05;;;;;;;0.00;0.00;;;18.30;99.90;;;;;;5133199;28;20040;-89
2022/07/16 09:15:35;;;;;;;0.10;0.08;;;18.50;99.90;;;;;;5116147;28;20554;-89
2022/07/16 09:18:26;;;;;;;0.73;0.20;;;18.60;99.90;;;;;;5133026;28;20078;-88
2022/07/16 09:20:53;;;;;;;0.38;0.13;;;18.70;99.90;;;;;;5116795;28;20059;-89
2022/07/16 09:23:29;;;;;;;0.13;0.10;;;18.70;99.90;;;;;;5116233;28;20036;-89
2022/07/16 09:26:00;;;;;;;0.10;0.00;;;18.50;99.90;;;;;;5133068;28;20040;-89
2022/07/16 09:29:00;;;;;;;0.00;0.00;;;18.40;99.90;;;;;;5132824;28;20130;-87
2022/07/16 09:31:38;;;;;;;0.15;0.13;;;18.10;99.90;;;;;;5132368;28;20088;-86
2022/07/16 09:34:10;;;;;;;0.00;0.00;;;18.20;99.90;;;;;;5131928;28;20036;-84
2022/07/16 09:36:38;;;;;;;0.10;0.10;;;18.00;99.90;;;;;;5163654;27;20112;-89
2022/07/16 09:39:06;;;;;;;0.20;0.10;;;18.00;99.90;;;;;;5116037;28;20089;-88
2022/07/16 09:41:42;;;;;;;0.10;0.10;;;18.00;99.90;;;;;;5132482;28;20032;-87
2022/07/16 09:44:21;;;;;;;0.00;0.00;;;18.00;99.90;;;;;;5130737;28;20083;-87
2022/07/16 09:47:06;;;;;;;0.00;0.00;;;18.30;99.90;;;;;;5164576;27;20043;-87
2022/07/16 09:49:36;;;;;;;0.22;0.13;;;18.40;99.90;;;;;;5114314;28;20535;-82
2022/07/16 09:52:08;;;;;;;0.03;0.03;;;18.70;99.90;;;;;;5131176;28;20043;-83
2022/07/16 09:54:38;;;;;;;0.05;0.05;;;19.00;99.90;;;;;;5131772;28;20044;-85
2022/07/16 09:57:08;;;;;;;0.10;0.00;;;19.10;99.90;;;;;;5114608;28;20430;-85
2022/07/16 09:59:35;;;;;;;0.28;0.10;;;19.30;99.90;;;;;;5131578;28;20119;-85
2022/07/16 10:02:03;;;;;;;0.00;0.00;;;19.40;99.90;;;;;;5143133;28;20036;-83
2022/07/16 10:04:30;;;;;;;0.00;0.00;;;19.30;99.90;;;;;;5114079;28;20031;-86
2022/07/16 10:06:57;;;;;;;0.00;0.00;;;19.10;99.90;;;;;;5124146;28;20514;-87
2022/07/16 10:09:25;;;;;;;0.10;0.10;;;19.00;99.90;;;;;;5146050;28;20078;-85
2022/07/16 10:11:54;;;;;;;0.03;0.03;;;19.10;99.90;;;;;;5131582;28;20042;-86
2022/07/16 10:14:21;;;;;;;0.00;0.00;;;19.20;99.90;;;;;;5131664;28;20389;-87
2022/07/16 10:16:48;;;;;;;0.10;0.00;;;19.50;99.90;;;;;;5148646;28;20044;-88
2022/07/16 10:19:15;;;;;;;0.00;0.00;;;19.30;99.90;;;;;;5116848;28;20089;-84
2022/07/16 10:22:13;;;;;;;0.08;0.00;;;19.20;99.90;;;;;;5113273;28;20685;-85
2022/07/16 10:24:54;;;;;;;0.03;0.03;;;19.00;99.90;;;;;;5138106;28;20063;-86
2022/07/16 10:27:31;;;;;;;0.00;0.00;;;19.10;99.90;;;;;;5150444;27;20028;-87
2022/07/16 10:30:14;;;;;;;0.00;0.00;;;19.50;99.90;;;;;;5130928;28;20046;-86
2022/07/16 10:32:59;;;;;;;0.10;0.10;;;19.80;99.20;;;;;;5130924;28;20036;-86
2022/07/16 10:35:31;;;;;;;0.00;0.00;;;20.00;99.90;;;;;;5131603;28;20062;-94
2022/07/16 10:38:08;;;;;;;0.70;0.40;;;20.00;99.00;;;;;;5128532;28;20123;-88
2022/07/16 10:40:37;;;;;;;0.00;0.00;;;19.90;98.70;;;;;;5146289;28;20049;-91
2022/07/16 10:43:20;;;;;;;0.00;0.00;;;19.90;99.90;;;;;;5115444;28;20027;-90
2022/07/16 10:46:11;;;;;;;0.00;0.00;;;19.70;99.90;;;;;;5129027;28;20044;-89
2022/07/16 10:48:38;;;;;;;0.28;0.10;;;19.80;99.90;;;;;;5102101;28;20047;-88
2022/07/16 10:51:29;;;;;;;0.10;0.10;;;19.80;99.90;;;;;;5129868;28;20039;-94
2022/07/16 10:53:57;;;;;;;0.00;0.00;;;19.70;99.90;;;;;;5146098;28;20039;-90
2022/07/16 10:56:44;;;;;;;0.17;0.10;;;19.50;99.90;;;;;;5165727;27;20044;-89
2022/07/16 10:59:13;;;;;;;0.00;0.00;;;19.70;99.90;;;;;;5131940;28;20040;-92
2022/07/16 11:01:43;;;;;;;0.10;0.10;;;19.80;99.90;;;;;;5131446;28;20411;-92
2022/07/16 11:04:11;;;;;;;0.40;0.30;;;19.80;99.90;;;;;;5131849;28;20112;-95
2022/07/16 11:06:39;;;;;;;0.00;0.00;;;19.50;99.90;;;;;;5128265;28;20105;-91
2022/07/16 11:09:07;;;;;;;0.10;0.10;;;19.40;99.90;;;;;;5127756;28;20127;-91
2022/07/16 11:11:37;;;;;;;0.08;0.08;;;19.30;99.90;;;;;;5123401;28;20040;-86
2022/07/16 11:14:05;;;;;;;0.00;0.00;;;19.20;99.90;;;;;;5147511;28;20040;-85
2022/07/16 11:16:33;;;;;;;0.05;0.03;;;19.20;99.90;;;;;;5147106;28;20040;-84
2022/07/16 11:19:04;;;;;;;0.03;0.03;;;19.20;99.90;;;;;;5130157;28;20489;-84
2022/07/16 11:21:31;;;;;;;0.00;0.00;;;19.10;99.90;;;;;;5163748;27;20042;-86
2022/07/16 11:24:00;;;;;;;0.00;0.00;;;19.10;99.90;;;;;;5147123;28;20105;-84
2022/07/16 11:26:28;;;;;;;0.35;0.17;;;19.00;99.90;;;;;;5146939;28;20411;-86
2022/07/16 11:28:58;;;;;;;0.10;0.10;;;19.00;99.90;;;;;;5130382;28;20036;-83
2022/07/16 11:31:37;;;;;;;0.00;0.00;;;19.30;99.90;;;;;;5129681;28;20190;-84
2022/07/16 11:34:10;;;;;;;0.08;0.08;;;19.60;99.90;;;;;;5164336;27;20040;-85
2022/07/16 11:36:39;;;;;;;0.00;0.00;;;19.80;99.90;;;;;;5146451;28;20091;-84
2022/07/16 11:39:09;;;;;;;0.08;0.08;;;19.80;99.90;;;;;;5164009;27;20048;-84
2022/07/16 11:41:39;;;;;;;0.17;0.10;;;19.80;99.90;;;;;;5129695;28;20473;-85
2022/07/16 11:44:15;;;;;;;0.00;0.00;;;19.80;99.90;;;;;;5129908;28;20097;-84
2022/07/16 11:47:04;;;;;;;0.05;0.05;;;19.70;99.90;;;;;;5163783;28;20044;-82
2022/07/16 11:49:38;;;;;;;0.13;0.10;;;19.60;99.90;;;;;;5121206;28;20459;-85
2022/07/16 11:52:06;;;;;;;0.03;0.03;;;19.60;99.90;;;;;;5146309;28;20572;-87
2022/07/16 11:54:38;;;;;;;0.00;0.00;;;19.80;99.90;;;;;;5113993;28;20521;-83
2022/07/16 11:57:07;;;;;;;0.40;0.15;;;20.00;99.80;;;;;;5097039;28;20519;-86
2022/07/16 11:59:35;;;;;;;0.00;0.00;;;20.20;99.10;;;;;;5113291;28;20047;-86
2022/07/16 12:02:04;;;;;;;0.05;0.05;;;20.40;98.70;;;;;;5113621;28;20130;-83
2022/07/16 12:04:40;;;;;;;0.00;0.00;;;20.40;98.30;;;;;;5129583;28;20040;-83
2022/07/16 12:07:16;;;;;;;0.03;0.03;;;20.20;98.70;;;;;;5151202;28;20122;-87
2022/07/16 12:09:44;;;;;;;0.30;0.13;;;20.20;99.80;;;;;;5150920;28;20071;-86
2022/07/16 12:12:17;;;;;;;0.05;0.00;;;20.30;99.70;;;;;;5134021;28;20040;-86
2022/07/16 12:14:48;;;;;;;0.10;0.10;;;20.20;99.80;;;;;;5133356;28;20040;-82
2022/07/16 12:17:25;;;;;;;0.10;0.10;;;20.30;98.50;;;;;;5150750;28;20038;-86
2022/07/16 12:20:06;;;;;;;0.10;0.00;;;20.60;97.90;;;;;;5150730;28;20039;-86
2022/07/16 12:22:47;;;;;;;0.00;0.00;;;20.70;97.00;;;;;;5132881;28;20043;-86
2022/07/16 12:25:23;;;;;;;0.00;0.00;;;20.60;97.60;;;;;;5150536;28;20099;-87
2022/07/16 12:27:52;;;;;;;0.13;0.13;;;20.50;97.70;;;;;;5167752;27;20035;-87
2022/07/16 12:30:29;;;;;;;0.10;0.10;;;20.60;97.70;;;;;;5134086;28;20074;-88
2022/07/16 12:32:56;;;;;;;0.20;0.10;;;20.50;97.30;;;;;;5166190;27;20407;-85
2022/07/16 12:35:41;;;;;;;0.08;0.08;;;20.30;95.80;;;;;;5150642;28;20052;-84
2022/07/16 12:38:30;;;;;;;0.20;0.10;;;20.60;97.30;;;;;;5167990;27;20130;-84
2022/07/16 12:40:57;;;;;;;0.15;0.10;;;20.70;96.30;;;;;;5129036;28;20075;-87
2022/07/16 12:43:23;;;;;;;0.00;0.00;;;20.80;95.50;;;;;;5115779;28;20078;-84
2022/07/16 12:45:50;;;;;;;0.10;0.10;;;20.90;94.30;;;;;;5149643;28;20127;-84
2022/07/16 12:48:17;;;;;;;0.10;0.10;;;20.90;95.00;;;;;;5132946;28;20044;-88
2022/07/16 12:50:43;;;;;;;0.10;0.10;;;20.80;94.40;;;;;;5099610;28;20054;-87
2022/07/16 12:53:10;;;;;;;0.10;0.10;;;20.90;95.00;;;;;;5112252;28;20051;-84
2022/07/16 13:01:29;;;;;;;0.10;0.10;;;21.10;96.30;;;;;;5051287;28;20124;-86
2022/07/16 13:03:56;;;;;;;0.10;0.10;;;20.90;95.40;;;;;;5050223;28;20136;-87
2022/07/16 13:06:24;;;;;;;1.25;0.20;;;20.70;95.50;;;;;;5081671;28;20051;-85
2022/07/16 13:08:51;;;;;;;0.00;0.00;;;20.70;95.10;;;;;;5149038;28;20532;-83
2022/07/16 13:11:19;;;;;;;0.00;0.00;;;20.70;95.50;;;;;;5132622;28;20074;-83